WEATHER DATA

YESTERDAY
Time Temp. Dewp. Hum. Wind dir Wind speed Wind gust Bar. 1h Prec. 24h Prec.
00:07 18.9 18.9 100 239 0.6 2.8 1019 0.1010 0.0000
00:16 19 19 100 183 0.6 1.4 1018.5 0.3030 0.2000
00:27 18.8 18.6 99 225 0.3 1.4 1018.7 0.8080 0.7000
00:37 18.8 18.8 100 192 0.3 1.1 1019 0.8080 0.8000
00:47 18.8 18.8 100 0 0.6 1019.2 0.8080 0.8000
00:57 18.8 18.8 100 0 0.6 1019.2 0.9090 0.9000
01:07 18.7 18.7 100 270 0.3 0.8 1018.9 0.9090 0.9000
01:17 18.8 18.8 100 270 0.3 1.4 1019.4 0.4040 0.9000
01:26 18.9 18.9 100 270 0.6 1.4 1019.4 0.2020 1.0000
01:37 18.9 18.9 100 270 0.3 1.1 1020 0.3030 1.1000
01:47 18.9 18.9 100 270 0.3 0.8 1020.3 0.5050 1.4000
02:07 18.8 18.6 99 187 0.6 1.4 1018.5 2.1210 3.0000
02:17 18.6 18.4 99 225 0.3 1.4 1017.8 2.2220 3.2000
02:27 18.5 18.5 100 192 0.6 2.2 1017.4 2.3230 3.3000
02:37 18.4 18.4 100 225 0.6 1.7 1017.8 2.1210 3.3000
02:47 18.4 18.4 100 254 0.6 1.9 1018.5 1.9190 3.5000
02:57 18.5 18.5 100 239 0.6 1.1 1019 3.0300 5.9000
03:07 18.6 18.6 100 270 0.6 1.4 1019.7 2.9290 6.1000
03:17 18.6 18.6 100 290 0.6 0.8 1019.4 3.2320 6.5000
03:27 18.7 18.7 100 186 0.3 0.6 1018.8 3.8380 7.2000
03:37 18.4 18.4 100 180 0.3 1.1 1018.2 4.1410 7.5000
03:47 18.4 18.4 100 212 0.3 0.8 1017.9 2.4240 7.5000
03:57 18.3 18.3 100 225 0.3 0.8 1017.9 1.6160 7.6000
04:07 18.3 18.3 100 0 0.6 1017.9 1.3130 7.6000
04:17 18.3 18.3 100 270 0.3 0.6 1017.7 1.1110 7.9000
04:27 18.3 18.3 100 270 0.3 0.6 1017.7 0.8080 8.2000
04:37 18.3 18.3 100 188 0.3 0.6 1017.3 0.9090 8.4000
04:47 18.2 18.2 100 195 0.3 0.6 1016.9 1.0100 8.5000
04:57 18.2 18.2 100 270 0.3 0.6 1017.1 0.9090 8.5000
05:07 18.2 18.2 100 270 0.3 0.6 1017.2 0.8080 8.5000
05:17 18.3 18.3 100 270 0.3 1.1 1017.2 0.4040 8.5000
05:27 18.3 18.3 100 270 0.3 0.6 1017.3 0.1010 8.5000
05:38 18.3 18.3 100 270 0.3 0.6 1017.3 0.0000 8.5000
05:47 18.4 18.4 100 270 0.3 0.6 1017.3 0.1010 8.6000
05:57 18.3 18.3 100 0 0.6 1017.3 0.1010 8.6000
06:07 18.4 18.4 100 270 0.3 0.6 1017.1 0.1010 8.6000
06:18 18.4 18.4 100 0 0.6 1017.3 0.1010 8.6000
06:27 18.4 18.4 100 270 0.3 0.6 1017.1 0.1010 8.6000
06:37 18.4 18.4 100 270 0.3 0.6 1017.2 0.0000 8.6000
06:48 18.4 18.4 100 232 0.3 0.6 1017.4 0.0000 8.6000
06:58 18.4 18.4 100 270 0.3 0.8 1017.4 0.0000 8.6000
07:07 18.4 18.4 100 270 0.3 0.6 1017.4 0.0000 8.6000
07:14 18.5 18.5 100 270 0.3 0.6 1017.2 0.3030 8.9000
07:24 18.5 18.5 100 270 0.3 0.8 1017.2 0.5050 9.1000
07:34 18.6 18.6 100 270 0.3 1.1 1017.5 0.6060 9.2000
07:44 18.7 18.7 100 270 0.3 0.8 1017.5 0.6060 9.2000
07:54 18.8 18.8 100 270 0.6 1.1 1018 0.6060 9.2000
08:09 19.1 19.1 100 270 0.6 2.2 1017.8 0.4040 9.2000
08:18 19.2 19.2 100 270 0.3 1.1 1017.8 0.1010 9.2000
08:28 19.4 19.4 100 270 0.6 1.1 1017.9 0.1010 9.2000
08:39 19.5 19.5 100 270 0.6 1.1 1018 0.0000 9.2000
08:48 19.6 19.6 100 285 0.6 1.1 1018.2 0.0000 9.2000
08:58 19.7 19.7 100 270 0.6 1.4 1017.8 0.0000 9.2000
09:09 19.8 19.8 100 270 0.3 1.1 1017.9 0.0000 9.2000
09:19 19.9 19.9 100 270 0.6 1.1 1018 0.0000 9.2000
09:28 20.1 20.1 100 270 0.3 1.1 1017.9 0.0000 9.2000
09:39 20.4 20.4 100 270 0.3 1.1 1018.1 0.0000 9.2000
09:49 20.6 20.6 100 270 0.3 0.8 1018 0.0000 9.2000
09:58 20.8 20.6 99 270 0.3 0.8 1018.1 0.0000 9.2000
10:08 21 20.8 99 0 0.3 1018 0.0000 9.2000
10:19 21 20.7 98 0 0.6 1018.1 0.0000 9.2000
10:29 21 20.7 98 270 0.3 0.6 1018.1 0.0000 9.2000
10:39 21 20.7 98 0 0.3 1018.2 0.0000 9.2000
10:49 21 20.8 99 270 0.3 0.8 1018.1 0.0000 9.2000
10:59 21.3 21.3 100 270 0.3 0.6 1018 0.0000 9.2000
11:11 22.1 22.1 100 285 0.6 0.8 1018 0.0000 9.2000
11:21 22.6 22.6 100 239 0.3 0.8 1018 0.0000 9.2000
11:30 23.1 23.1 100 270 0.3 1.7 1018.1 0.0000 9.2000
11:41 23.6 23.4 99 270 0.3 0.8 1018.1 0.0000 9.2000
11:51 23.9 23.4 97 270 0.6 1.1 1018.1 0.0000 9.2000
12:01 24.2 23.9 98 270 0.6 1.4 1018.2 0.0000 9.2000
12:11 24.5 23.8 96 270 0.6 1.4 1018.1 0.0000 9.2000
12:21 24.5 23.8 96 270 0.6 1.4 1018 0.0000 9.2000
12:41 24.9 24.2 96 270 0.6 1.7 1017.9 0.0000 9.2000
12:52 25.4 24.7 96 270 0.6 1.7 1017.9 0.0000 9.2000
13:01 25.6 24.9 96 254 0.6 1.1 1017.7 0.0000 9.2000
13:11 25.9 25 95 270 0.3 1.4 1017.9 0.0000 9.2000
13:22 25.9 24.9 94 270 0.3 1.4 1017.7 0.0000 9.2000
13:32 25.9 24.9 94 270 0.6 1.4 1017.6 0.0000 9.2000
13:41 25.9 24.9 94 270 0.8 1.4 1017.4 0.0000 9.2000
14:02 26.3 25.3 94 270 0.6 1.7 1017.2 0.0000 9.2000
14:12 26.6 25.7 95 270 0.6 1.4 1017.2 0.0000 9.2000
14:22 26.7 25.7 94 270 0.3 1.7 1017.2 0.0000 9.2000
14:32 26.8 25.8 94 270 0.3 1.7 1017.1 0.0000 9.2000
14:42 26.8 25.6 93 249 0.6 1.7 1017.2 0.0000 9.2000
14:52 26.9 25.7 93 270 0.6 1.9 1017.1 0.0000 9.2000
15:02 26.7 25.3 92 270 0.6 2.2 1017.2 0.0000 9.2000
15:12 26.4 25 92 270 0.6 1.4 1016.8 0.0000 9.2000
15:22 26.3 24.9 92 240 0.6 1.4 1016.9 0.0000 9.2000
15:32 26.2 24.8 92 270 0.8 2.2 1016.7 0.0000 9.2000
15:43 26.1 24.7 92 270 0.6 1.7 1016.9 0.0000 9.2000
16:02 25.9 24.5 92 270 0.6 1.9 1016.7 0.0000 9.2000
16:13 25.6 24.2 92 270 0.6 2.5 1016.7 0.0000 9.2000
16:23 25.7 24.5 93 253 0.6 1.4 1016.7 0.0000 9.2000
16:32 25.9 24.9 94 254 0.6 1.4 1016.6 0.0000 9.2000
16:43 26.3 25.3 94 270 0.6 2.2 1016.6 0.0000 9.2000
16:53 26.4 25.2 93 270 0.6 2.2 1016.5 0.0000 9.2000
17:03 26.2 24.4 90 191 0.6 1.9 1016.3 0.0000 9.2000
17:23 26.2 24.8 92 270 0.6 1.4 1016 0.0000 9.2000
17:43 26.2 24.8 92 270 0.3 1.1 1015.9 0.0000 9.2000
17:53 26 24.6 92 270 0.6 1.4 1015.9 0.0000 9.2000
18:03 25.9 24.5 92 225 0.6 1.4 1015.9 0.0000 9.2000
18:13 26.1 24.7 92 270 0.3 1.7 1015.7 0.0000 9.2000
18:34 25.9 24.3 91 180 0.3 0.8 1015.7 0.0000 9.2000
18:43 25.8 24.2 91 253 0.6 1.4 1015.5 0.0000 9.2000
18:53 25.5 23.9 91 161 0.3 0.8 1015.5 0.0000 9.2000
19:03 25.4 24 92 270 0.3 0.8 1015.4 0.0000 9.2000
19:14 25.3 23.9 92 270 0.6 1.1 1015.5 0.0000 9.2000
19:24 25.1 23.5 91 122 0.3 0.8 1015.5 0.0000 9.2000
19:34 24.8 23.4 92 90 0.3 0.6 1015.5 0.0000 9.2000
19:44 24.6 23 91 45 0.3 0.8 1015.2 0.0000 9.2000
19:54 24.3 22.7 91 59 0.3 1.1 1015.4 0.0000 9.2000
20:04 24 22.4 91 90 0.3 0.8 1015.7 0.0000 9.2000
20:14 23.6 22 91 90 0.3 0.6 1015.5 0.0000 9.2000
20:24 23.4 22 92 90 0.3 0.6 1015.4 0.0000 9.2000
20:34 23 21.6 92 0 0.6 1015.6 0.0000 9.2000
20:44 22.5 21.1 92 135 0.3 0.6 1015.5 0.0000 9.2000
20:55 22.1 20.7 92 149 0.3 0.8 1015.5 0.0000 9.2000
21:05 21.7 20.5 93 135 0.3 0.6 1015.7 0.0000 9.2000
21:14 21.4 20.2 93 144 0.3 0.6 1015.7 0.0000 9.2000
21:24 21 19.8 93 0 0.6 1015.7 0.0000 9.2000
21:35 20.7 19.5 93 0 0.6 1015.8 0.0000 9.2000
21:45 20.4 19.2 93 0 0.6 1015.7 0.0000 9.2000
21:55 20 19 94 0 0.6 1016.2 0.0000 9.2000
22:05 19.9 18.9 94 0 0.6 1016.1 0.0000 9.2000
22:15 19.6 18.6 94 0 0.6 1015.9 0.0000 9.2000
22:25 19.5 18.7 95 201 0.3 0.6 1016.2 0.0000 9.2000
22:35 19.4 18.6 95 0 0.6 1016.3 0.0000 9.2000
22:45 19.3 18.5 95 0 0.3 1016.3 0.0000 9.2000
22:55 19.1 18.3 95 0 0.6 1016.3 0.0000 9.2000
23:05 18.9 18.1 95 0 0.6 1016.2 0.0000 9.2000
23:16 18.7 17.9 95 0 0.6 1016.7 0.0000 9.2000
23:26 18.5 17.9 96 0 0.6 1016.4 0.0000 9.2000
23:35 18.5 17.9 96 0 0.6 1016.5 0.0000 9.2000
23:45 18.3 17.7 96 0 0.6 1016.4 0.0000 9.2000
23:56 18.2 17.6 96 0 0.6 1016.3 0.0000 9.2000

DAY STATISTIC

2018-07-20
TEMPERATURE
AVERAGE
21.5
HIGH
26.9
14:52
LOW
18.2
04:47
PRESSURE
AVERAGE
1017.3
HIGH
1020.3
01:47
LOW
1015.2
19:44
DEWPOINT
AVERAGE
20.9
HIGH
25.8
14:32
LOW
17.6
23:56
HUMIDITY
AVERAGE
97
HIGH
100
00:07
LOW
90
17:03
WIND SPEED
AVERAGE
0.4
HIGH
0.8
13:41
WIND GUST
AVERAGE
1.1
HIGH
2.8
00:07
WIND DIRECTION
PREVAILING
W
57.4%
N
0.0
NE
1.5
E
2.9
SE
3.7
S
8.8
SW
8.1
W
57.4
NW
0.0
PRECIPITATION
RAIN HOUR
4.1
RAIN DAY
9.2
TEMPERATURE (°C)
LOW
18.2
HIGH
26.9
AVERAGE
21.5
PRESSURE (hpa)
LOW
1015.2
HIGH
1020.3
AVERAGE
1017.3
DEVICE